Time,TemperatureF,DewpointF,PressureIn,WindDirection,WindDirectionDegrees,WindSpeedMPH,WindSpeedGustMPH,Humidity,HourlyPrecipIn,Conditions,Clouds,dailyrainin,SoftwareType,DateUTC
2015-07-06 00:13:00,56.0,55.0,-100.00,NNW,342,9.0,15.0,98,-99.99,,,-99.99,,2015-07-06 06:13:00,
2015-07-06 00:23:00,56.0,55.0,-100.00,NNW,342,9.0,15.0,98,-99.99,,,-99.99,,2015-07-06 06:23:00,
2015-07-06 00:33:00,56.0,55.0,-100.00,NNW,342,9.0,15.0,98,-99.99,,,-99.99,,2015-07-06 06:33:00,
2015-07-06 00:43:00,56.0,55.0,-100.00,NNW,342,9.0,15.0,98,-99.99,,,-99.99,,2015-07-06 06:43:00,
2015-07-06 00:51:00,56.0,55.0,-100.00,NNW,345,5.0,15.0,97,-99.99,,,-99.99,,2015-07-06 06:51:00,
2015-07-06 01:12:00,56.0,55.0,-100.00,NNW,345,5.0,15.0,97,-99.99,,,-99.99,,2015-07-06 07:12:00,
2015-07-06 01:23:00,56.0,55.0,-100.00,NNW,345,5.0,15.0,97,-99.99,,,-99.99,,2015-07-06 07:23:00,
2015-07-06 01:33:00,56.0,55.0,-100.00,NNW,345,5.0,15.0,97,-99.99,,,-99.99,,2015-07-06 07:33:00,
2015-07-06 01:43:00,56.0,55.0,-100.00,NNW,345,5.0,15.0,97,-99.99,,,-99.99,,2015-07-06 07:43:00,
2015-07-06 01:51:00,54.0,53.0,-100.00,NNW,343,7.0,14.0,97,-99.99,,,-99.99,,2015-07-06 07:51:00,
2015-07-06 02:12:00,54.0,53.0,-100.00,NNW,343,7.0,14.0,97,-99.99,,,-99.99,,2015-07-06 08:12:00,
2015-07-06 02:23:00,54.0,53.0,-100.00,NNW,343,7.0,14.0,97,-99.99,,,-99.99,,2015-07-06 08:23:00,
2015-07-06 02:33:00,54.0,53.0,-100.00,NNW,343,7.0,14.0,97,-99.99,,,-99.99,,2015-07-06 08:33:00,
2015-07-06 02:43:00,54.0,53.0,-100.00,NNW,343,7.0,14.0,97,-99.99,,,-99.99,,2015-07-06 08:43:00,
2015-07-06 02:51:00,54.0,53.0,-100.00,North,354,8.0,14.0,97,-99.99,,,-99.99,,2015-07-06 08:51:00,
2015-07-06 03:12:00,54.0,53.0,-100.00,North,354,8.0,14.0,97,-99.99,,,-99.99,,2015-07-06 09:12:00,
2015-07-06 03:23:00,54.0,53.0,-100.00,North,354,8.0,14.0,97,-99.99,,,-99.99,,2015-07-06 09:23:00,
2015-07-06 03:33:00,54.0,53.0,-100.00,North,354,8.0,14.0,97,-99.99,,,-99.99,,2015-07-06 09:33:00,
2015-07-06 03:43:00,54.0,53.0,-100.00,North,354,8.0,14.0,97,-99.99,,,-99.99,,2015-07-06 09:43:00,
2015-07-06 03:51:00,56.0,55.0,-100.00,North,350,7.0,10.0,98,-99.99,,,-99.99,,2015-07-06 09:51:00,
2015-07-06 04:13:00,56.0,55.0,-100.00,North,350,7.0,10.0,98,-99.99,,,-99.99,,2015-07-06 10:13:00,
2015-07-06 04:23:00,56.0,55.0,-100.00,North,350,7.0,10.0,98,-99.99,,,-99.99,,2015-07-06 10:23:00,
2015-07-06 04:33:00,56.0,55.0,-100.00,North,350,7.0,10.0,98,-99.99,,,-99.99,,2015-07-06 10:33:00,
2015-07-06 04:43:00,56.0,55.0,-100.00,North,350,7.0,10.0,98,-99.99,,,-99.99,,2015-07-06 10:43:00,
2015-07-06 04:51:00,53.0,51.0,-100.00,NNE,18,8.0,13.0,93,-99.99,,,-99.99,,2015-07-06 10:51:00,
2015-07-06 05:13:00,53.0,51.0,-100.00,NNE,18,8.0,13.0,93,-99.99,,,-99.99,,2015-07-06 11:13:00,
2015-07-06 05:23:00,53.0,51.0,-100.00,NNE,18,8.0,13.0,93,-99.99,,,-99.99,,2015-07-06 11:23:00,
2015-07-06 05:33:00,53.0,51.0,-100.00,NNE,18,8.0,13.0,93,-99.99,,,-99.99,,2015-07-06 11:33:00,
2015-07-06 05:43:00,53.0,51.0,-100.00,NNE,18,8.0,13.0,93,-99.99,,,-99.99,,2015-07-06 11:43:00,
2015-07-06 05:51:00,52.0,51.0,-100.00,North,10,5.0,12.0,95,-99.99,,,-99.99,,2015-07-06 11:51:00,
2015-07-06 06:13:00,52.0,51.0,-100.00,North,10,5.0,12.0,95,-99.99,,,-99.99,,2015-07-06 12:13:00,
2015-07-06 06:23:00,52.0,51.0,-100.00,North,10,5.0,12.0,95,-99.99,,,-99.99,,2015-07-06 12:23:00,
2015-07-06 06:34:00,52.0,51.0,-100.00,North,10,5.0,12.0,95,-99.99,,,-99.99,,2015-07-06 12:34:00,
2015-07-06 06:44:00,52.0,51.0,-100.00,North,10,5.0,12.0,95,-99.99,,,-99.99,,2015-07-06 12:44:00,
2015-07-06 06:51:00,53.0,52.0,-100.00,NNE,22,7.0,12.0,98,-99.99,,,-99.99,,2015-07-06 12:51:00,
2015-07-06 07:13:00,53.0,52.0,-100.00,NNE,22,7.0,12.0,98,-99.99,,,-99.99,,2015-07-06 13:13:00,
2015-07-06 07:23:00,53.0,52.0,-100.00,NNE,22,7.0,12.0,98,-99.99,,,-99.99,,2015-07-06 13:23:00,
2015-07-06 07:33:00,53.0,52.0,-100.00,NNE,22,7.0,12.0,98,-99.99,,,-99.99,,2015-07-06 13:33:00,
2015-07-06 07:43:00,53.0,52.0,-100.00,NNE,22,7.0,12.0,98,-99.99,,,-99.99,,2015-07-06 13:43:00,
2015-07-06 07:51:00,52.0,50.0,-100.00,NNE,17,5.0,13.0,93,-99.99,,,-99.99,,2015-07-06 13:51:00,
2015-07-06 08:12:00,52.0,50.0,-100.00,NNE,17,5.0,13.0,93,-99.99,,,-99.99,,2015-07-06 14:12:00,
2015-07-06 08:23:00,52.0,50.0,-100.00,NNE,17,5.0,13.0,93,-99.99,,,-99.99,,2015-07-06 14:23:00,
2015-07-06 08:33:00,52.0,50.0,-100.00,NNE,17,5.0,13.0,93,-99.99,,,-99.99,,2015-07-06 14:33:00,
2015-07-06 08:43:00,52.0,50.0,-100.00,NNE,17,5.0,13.0,93,-99.99,,,-99.99,,2015-07-06 14:43:00,
2015-07-06 08:51:00,53.0,50.0,-100.00,NNE,33,7.0,11.0,88,-99.99,,,-99.99,,2015-07-06 14:51:00,
2015-07-06 09:13:00,53.0,50.0,-100.00,NNE,33,7.0,11.0,88,-99.99,,,-99.99,,2015-07-06 15:13:00,
2015-07-06 09:23:00,53.0,50.0,-100.00,NNE,33,7.0,11.0,88,-99.99,,,-99.99,,2015-07-06 15:23:00,
2015-07-06 09:33:00,53.0,50.0,-100.00,NNE,33,7.0,11.0,88,-99.99,,,-99.99,,2015-07-06 15:33:00,
2015-07-06 09:44:00,53.0,50.0,-100.00,NNE,33,7.0,11.0,88,-99.99,,,-99.99,,2015-07-06 15:44:00,
2015-07-06 09:51:00,55.0,50.0,-100.00,NNE,28,3.0,9.0,82,-99.99,,,-99.99,,2015-07-06 15:51:00,
2015-07-06 10:13:00,55.0,50.0,-100.00,NNE,28,3.0,9.0,82,-99.99,,,-99.99,,2015-07-06 16:13:00,
2015-07-06 10:23:00,55.0,50.0,-100.00,NNE,28,3.0,9.0,82,-99.99,,,-99.99,,2015-07-06 16:23:00,
2015-07-06 10:34:00,55.0,50.0,-100.00,NNE,28,3.0,9.0,82,-99.99,,,-99.99,,2015-07-06 16:34:00,
2015-07-06 10:44:00,55.0,50.0,-100.00,NNE,28,3.0,9.0,82,-99.99,,,-99.99,,2015-07-06 16:44:00,
2015-07-06 10:51:00,58.0,51.0,-100.00,ENE,65,2.0,7.0,78,-99.99,,,-99.99,,2015-07-06 16:51:00,
2015-07-06 11:24:00,58.0,51.0,-100.00,ENE,65,2.0,7.0,78,-99.99,,,-99.99,,2015-07-06 17:24:00,
2015-07-06 11:34:00,58.0,51.0,-100.00,ENE,65,2.0,7.0,78,-99.99,,,-99.99,,2015-07-06 17:34:00,
2015-07-06 11:44:00,58.0,51.0,-100.00,ENE,65,2.0,7.0,78,-99.99,,,-99.99,,2015-07-06 17:44:00,
2015-07-06 11:51:00,61.0,52.0,-100.00,ESE,114,1.0,6.0,72,-99.99,,,-99.99,,2015-07-06 17:51:00,
2015-07-06 12:13:00,61.0,52.0,-100.00,ESE,114,1.0,6.0,72,-99.99,,,-99.99,,2015-07-06 18:13:00,
2015-07-06 12:24:00,61.0,52.0,-100.00,ESE,114,1.0,6.0,72,-99.99,,,-99.99,,2015-07-06 18:24:00,
2015-07-06 12:34:00,61.0,52.0,-100.00,ESE,114,1.0,6.0,72,-99.99,,,-99.99,,2015-07-06 18:34:00,
2015-07-06 12:44:00,61.0,52.0,-100.00,ESE,114,1.0,6.0,72,-99.99,,,-99.99,,2015-07-06 18:44:00,
2015-07-06 12:51:00,64.0,53.0,-100.00,ENE,58,2.0,7.0,67,-99.99,,,-99.99,,2015-07-06 18:51:00,
2015-07-06 13:13:00,64.0,53.0,-100.00,ENE,58,2.0,7.0,67,-99.99,,,-99.99,,2015-07-06 19:13:00,
2015-07-06 13:23:00,64.0,53.0,-100.00,ENE,58,2.0,7.0,67,-99.99,,,-99.99,,2015-07-06 19:23:00,
2015-07-06 13:33:00,64.0,53.0,-100.00,ENE,58,2.0,7.0,67,-99.99,,,-99.99,,2015-07-06 19:33:00,
2015-07-06 13:44:00,64.0,53.0,-100.00,ENE,58,2.0,7.0,67,-99.99,,,-99.99,,2015-07-06 19:44:00,